sensor_id;sensor_type;location;lat;lon;timestamp;pressure;altitude;pressure_sealevel;temperature;humidity
78665;BME280;67981;51.022;-2.870;2024-01-15T00:01:07;99375.81;;;3.24;87.74
78665;BME280;67981;51.022;-2.870;2024-01-15T00:03:33;99331.47;;;3.19;87.15
78665;BME280;67981;51.022;-2.870;2024-01-15T00:05:58;99288.22;;;3.22;86.77
78665;BME280;67981;51.022;-2.870;2024-01-15T00:08:24;99283.78;;;3.16;86.19
78665;BME280;67981;51.022;-2.870;2024-01-15T00:10:49;99259.19;;;3.17;86.27
78665;BME280;67981;51.022;-2.870;2024-01-15T00:13:14;99254.06;;;3.17;86.22
78665;BME280;67981;51.022;-2.870;2024-01-15T00:15:40;99237.88;;;3.15;85.61
78665;BME280;67981;51.022;-2.870;2024-01-15T00:18:06;99231.97;;;3.16;85.47
78665;BME280;67981;51.022;-2.870;2024-01-15T00:20:31;99212.28;;;3.12;85.28
78665;BME280;67981;51.022;-2.870;2024-01-15T00:22:57;99206.31;;;3.11;85.61
78665;BME280;67981;51.022;-2.870;2024-01-15T00:25:22;99221.81;;;3.17;85.61
78665;BME280;67981;51.022;-2.870;2024-01-15T00:27:48;99212.94;;;3.06;85.93
78665;BME280;67981;51.022;-2.870;2024-01-15T00:30:13;99244.59;;;3.13;86.26
78665;BME280;67981;51.022;-2.870;2024-01-15T00:32:39;99241.16;;;3.11;85.97
78665;BME280;67981;51.022;-2.870;2024-01-15T00:35:04;99253.16;;;3.15;85.76
78665;BME280;67981;51.022;-2.870;2024-01-15T00:37:30;99256.34;;;3.08;86.18
78665;BME280;67981;51.022;-2.870;2024-01-15T00:39:55;99237.59;;;3.06;85.83
78665;BME280;67981;51.022;-2.870;2024-01-15T00:42:21;99237.59;;;3.06;85.48
78665;BME280;67981;51.022;-2.870;2024-01-15T00:44:46;99229.13;;;3.07;85.84
78665;BME280;67981;51.022;-2.870;2024-01-15T00:47:11;99224.94;;;3.09;85.98
78665;BME280;67981;51.022;-2.870;2024-01-15T00:49:37;99219.84;;;3.09;86.05
78665;BME280;67981;51.022;-2.870;2024-01-15T00:52:02;99229.84;;;3.03;86.20
78665;BME280;67981;51.022;-2.870;2024-01-15T00:54:28;99245.88;;;3.00;86.46
78665;BME280;67981;51.022;-2.870;2024-01-15T00:56:53;99246.84;;;3.04;86.23
78665;BME280;67981;51.022;-2.870;2024-01-15T00:59:20;99235.19;;;3.10;86.01
78665;BME280;67981;51.022;-2.870;2024-01-15T01:01:46;99221.50;;;3.08;86.15
78665;BME280;67981;51.022;-2.870;2024-01-15T01:04:11;99212.00;;;3.03;86.24
78665;BME280;67981;51.022;-2.870;2024-01-15T01:06:37;99236.53;;;2.99;86.42
78665;BME280;67981;51.022;-2.870;2024-01-15T01:09:03;99253.53;;;3.00;86.64
78665;BME280;67981;51.022;-2.870;2024-01-15T01:11:28;99238.94;;;2.95;86.04
78665;BME280;67981;51.022;-2.870;2024-01-15T01:13:54;99262.69;;;2.95;86.61
78665;BME280;67981;51.022;-2.870;2024-01-15T01:16:21;99272.09;;;2.96;86.67
78665;BME280;67981;51.022;-2.870;2024-01-15T01:18:47;99271.81;;;2.88;86.74
78665;BME280;67981;51.022;-2.870;2024-01-15T01:21:12;99297.16;;;2.84;87.03
78665;BME280;67981;51.022;-2.870;2024-01-15T01:23:37;99316.50;;;2.79;87.36
78665;BME280;67981;51.022;-2.870;2024-01-15T01:26:03;99345.28;;;2.76;87.84
78665;BME280;67981;51.022;-2.870;2024-01-15T01:28:28;99373.56;;;2.84;87.88
78665;BME280;67981;51.022;-2.870;2024-01-15T01:30:54;99402.38;;;2.81;88.08
78665;BME280;67981;51.022;-2.870;2024-01-15T01:33:19;99383.28;;;2.70;88.14
78665;BME280;67981;51.022;-2.870;2024-01-15T01:35:45;99436.16;;;2.77;88.27
78665;BME280;67981;51.022;-2.870;2024-01-15T01:38:12;99445.25;;;2.71;88.77
78665;BME280;67981;51.022;-2.870;2024-01-15T01:40:37;99476.91;;;2.77;89.09
78665;BME280;67981;51.022;-2.870;2024-01-15T01:43:04;99490.06;;;2.88;89.03
78665;BME280;67981;51.022;-2.870;2024-01-15T01:45:30;99469.31;;;3.01;88.22
78665;BME280;67981;51.022;-2.870;2024-01-15T01:47:55;99427.97;;;3.10;87.93
78665;BME280;67981;51.022;-2.870;2024-01-15T01:50:21;99394.94;;;3.13;87.52
78665;BME280;67981;51.022;-2.870;2024-01-15T01:52:47;99368.66;;;3.14;87.06
78665;BME280;67981;51.022;-2.870;2024-01-15T01:55:13;99322.69;;;3.11;86.78
78665;BME280;67981;51.022;-2.870;2024-01-15T01:57:40;99280.06;;;3.07;86.68
78665;BME280;67981;51.022;-2.870;2024-01-15T02:00:07;99264.19;;;3.14;86.02
78665;BME280;67981;51.022;-2.870;2024-01-15T02:02:33;99221.56;;;3.10;86.17
78665;BME280;67981;51.022;-2.870;2024-01-15T02:04:59;99205.44;;;3.09;85.86
78665;BME280;67981;51.022;-2.870;2024-01-15T02:07:25;99197.78;;;3.09;85.84
78665;BME280;67981;51.022;-2.870;2024-01-15T02:09:50;99193.63;;;3.13;85.54
78665;BME280;67981;51.022;-2.870;2024-01-15T02:12:16;99174.16;;;3.15;85.01
78665;BME280;67981;51.022;-2.870;2024-01-15T02:14:42;99140.97;;;3.13;85.01
78665;BME280;67981;51.022;-2.870;2024-01-15T02:17:07;99138.44;;;3.13;85.01
78665;BME280;67981;51.022;-2.870;2024-01-15T02:19:32;99120.81;;;3.21;84.60
78665;BME280;67981;51.022;-2.870;2024-01-15T02:21:58;99095.28;;;3.19;84.06
78665;BME280;67981;51.022;-2.870;2024-01-15T02:24:23;99065.44;;;3.15;84.40
78665;BME280;67981;51.022;-2.870;2024-01-15T02:26:49;99055.16;;;3.12;84.07
78665;BME280;67981;51.022;-2.870;2024-01-15T02:29:15;99050.88;;;3.11;84.21
78665;BME280;67981;51.022;-2.870;2024-01-15T02:31:40;99036.25;;;3.04;83.91
78665;BME280;67981;51.022;-2.870;2024-01-15T02:34:06;99036.03;;;2.98;84.31
78665;BME280;67981;51.022;-2.870;2024-01-15T02:36:31;99052.13;;;2.96;84.41
78665;BME280;67981;51.022;-2.870;2024-01-15T02:38:57;99086.16;;;2.98;84.45
78665;BME280;67981;51.022;-2.870;2024-01-15T02:41:22;99088.56;;;2.93;84.65
78665;BME280;67981;51.022;-2.870;2024-01-15T02:43:47;99095.03;;;2.83;84.63
78665;BME280;67981;51.022;-2.870;2024-01-15T02:46:13;99118.78;;;2.82;85.12
78665;BME280;67981;51.022;-2.870;2024-01-15T02:48:38;99127.13;;;2.77;85.17
78665;BME280;67981;51.022;-2.870;2024-01-15T02:51:04;99159.41;;;2.78;85.57
78665;BME280;67981;51.022;-2.870;2024-01-15T02:53:29;99179.69;;;2.75;85.88
78665;BME280;67981;51.022;-2.870;2024-01-15T02:55:55;99216.28;;;2.77;85.83
78665;BME280;67981;51.022;-2.870;2024-01-15T02:58:21;99233.03;;;2.70;85.58
78665;BME280;67981;51.022;-2.870;2024-01-15T03:00:46;99248.91;;;2.63;86.27
78665;BME280;67981;51.022;-2.870;2024-01-15T03:03:12;99297.28;;;2.63;86.53
78665;BME280;67981;51.022;-2.870;2024-01-15T03:05:37;99333.03;;;2.66;87.02
78665;BME280;67981;51.022;-2.870;2024-01-15T03:08:03;99364.28;;;2.61;86.98
78665;BME280;67981;51.022;-2.870;2024-01-15T03:10:28;99396.19;;;2.53;87.67
78665;BME280;67981;51.022;-2.870;2024-01-15T03:12:54;99435.97;;;2.49;88.07
78665;BME280;67981;51.022;-2.870;2024-01-15T03:15:19;99484.34;;;2.49;88.38
78665;BME280;67981;51.022;-2.870;2024-01-15T03:17:45;99529.13;;;2.44;88.67
78665;BME280;67981;51.022;-2.870;2024-01-15T03:20:11;99585.25;;;2.47;89.38
78665;BME280;67981;51.022;-2.870;2024-01-15T03:22:36;99604.56;;;2.42;90.01
78665;BME280;67981;51.022;-2.870;2024-01-15T03:25:03;99645.31;;;2.42;90.30
78665;BME280;67981;51.022;-2.870;2024-01-15T03:27:29;99665.66;;;2.42;90.79
78665;BME280;67981;51.022;-2.870;2024-01-15T03:29:54;99699.53;;;2.40;91.17
78665;BME280;67981;51.022;-2.870;2024-01-15T03:32:20;99724.16;;;2.41;91.73
78665;BME280;67981;51.022;-2.870;2024-01-15T03:34:45;99746.94;;;2.38;92.19
78665;BME280;67981;51.022;-2.870;2024-01-15T03:37:12;99749.94;;;2.29;91.87
78665;BME280;67981;51.022;-2.870;2024-01-15T03:39:38;99764.97;;;2.23;92.22
78665;BME280;67981;51.022;-2.870;2024-01-15T03:42:03;99781.84;;;2.21;92.72
78665;BME280;67981;51.022;-2.870;2024-01-15T03:44:29;99796.50;;;2.08;93.32
78665;BME280;67981;51.022;-2.870;2024-01-15T03:46:54;99805.38;;;1.98;93.32
78665;BME280;67981;51.022;-2.870;2024-01-15T03:49:20;99841.53;;;1.91;93.74
78665;BME280;67981;51.022;-2.870;2024-01-15T03:51:45;99869.44;;;1.90;94.32
78665;BME280;67981;51.022;-2.870;2024-01-15T03:54:11;99879.16;;;1.81;94.78
78665;BME280;67981;51.022;-2.870;2024-01-15T03:56:36;99902.59;;;1.74;95.27
78665;BME280;67981;51.022;-2.870;2024-01-15T03:59:02;99927.69;;;1.68;95.77
78665;BME280;67981;51.022;-2.870;2024-01-15T04:01:28;99953.06;;;1.66;96.69
78665;BME280;67981;51.022;-2.870;2024-01-15T04:03:53;99966.28;;;1.59;97.09
78665;BME280;67981;51.022;-2.870;2024-01-15T04:06:19;99976.13;;;1.53;97.65
78665;BME280;67981;51.022;-2.870;2024-01-15T04:08:44;99998.88;;;1.50;97.91
78665;BME280;67981;51.022;-2.870;2024-01-15T04:11:09;100005.00;;;1.37;98.78
78665;BME280;67981;51.022;-2.870;2024-01-15T04:13:35;100020.19;;;1.36;99.00
78665;BME280;67981;51.022;-2.870;2024-01-15T04:16:00;100041.63;;;1.41;99.64
78665;BME280;67981;51.022;-2.870;2024-01-15T04:18:26;100053.38;;;1.39;100.00
78665;BME280;67981;51.022;-2.870;2024-01-15T04:20:51;100065.31;;;1.40;100.00
78665;BME280;67981;51.022;-2.870;2024-01-15T04:23:17;100087.84;;;1.50;100.00
78665;BME280;67981;51.022;-2.870;2024-01-15T04:25:42;100089.19;;;1.43;100.00
78665;BME280;67981;51.022;-2.870;2024-01-15T04:28:10;100098.66;;;1.46;100.00
78665;BME280;67981;51.022;-2.870;2024-01-15T04:30:36;100105.41;;;1.45;100.00
78665;BME280;67981;51.022;-2.870;2024-01-15T04:33:01;100108.97;;;1.33;100.00
78665;BME280;67981;51.022;-2.870;2024-01-15T04:35:27;100119.88;;;1.30;100.00
78665;BME280;67981;51.022;-2.870;2024-01-15T04:37:52;100132.66;;;1.32;100.00
78665;BME280;67981;51.022;-2.870;2024-01-15T04:40:18;100139.69;;;1.21;100.00
78665;BME280;67981;51.022;-2.870;2024-01-15T04:42:43;100140.78;;;1.10;100.00
78665;BME280;67981;51.022;-2.870;2024-01-15T04:45:11;100140.13;;;0.98;100.00
78665;BME280;67981;51.022;-2.870;2024-01-15T04:47:36;100149.78;;;0.89;100.00
78665;BME280;67981;51.022;-2.870;2024-01-15T04:50:03;100163.31;;;0.74;100.00
78665;BME280;67981;51.022;-2.870;2024-01-15T04:52:29;100168.81;;;0.67;100.00
78665;BME280;67981;51.022;-2.870;2024-01-15T04:54:54;100179.63;;;0.63;100.00
78665;BME280;67981;51.022;-2.870;2024-01-15T04:57:19;100180.47;;;0.49;100.00
78665;BME280;67981;51.022;-2.870;2024-01-15T04:59:45;100201.56;;;0.48;100.00
78665;BME280;67981;51.022;-2.870;2024-01-15T05:02:10;100192.09;;;0.31;100.00
78665;BME280;67981;51.022;-2.870;2024-01-15T05:04:36;100209.78;;;0.29;100.00
78665;BME280;67981;51.022;-2.870;2024-01-15T05:07:01;100212.75;;;0.22;100.00
78665;BME280;67981;51.022;-2.870;2024-01-15T05:09:26;100230.78;;;0.27;100.00
78665;BME280;67981;51.022;-2.870;2024-01-15T05:11:52;100233.31;;;0.27;100.00
78665;BME280;67981;51.022;-2.870;2024-01-15T05:14:17;100234.97;;;0.26;100.00
78665;BME280;67981;51.022;-2.870;2024-01-15T05:16:52;100248.13;;;0.34;100.00
78665;BME280;67981;51.022;-2.870;2024-01-15T05:19:18;100260.03;;;0.49;100.00
78665;BME280;67981;51.022;-2.870;2024-01-15T05:21:43;100257.00;;;0.55;100.00
78665;BME280;67981;51.022;-2.870;2024-01-15T05:24:08;100253.81;;;0.59;100.00
78665;BME280;67981;51.022;-2.870;2024-01-15T05:26:34;100243.59;;;0.57;100.00
78665;BME280;67981;51.022;-2.870;2024-01-15T05:28:59;100233.53;;;0.59;100.00
78665;BME280;67981;51.022;-2.870;2024-01-15T05:31:25;100212.69;;;0.50;100.00
78665;BME280;67981;51.022;-2.870;2024-01-15T05:33:50;100213.56;;;0.50;100.00
78665;BME280;67981;51.022;-2.870;2024-01-15T05:36:16;100207.53;;;0.48;100.00
78665;BME280;67981;51.022;-2.870;2024-01-15T05:38:41;100191.75;;;0.39;100.00
78665;BME280;67981;51.022;-2.870;2024-01-15T05:41:07;100211.66;;;0.61;100.00
78665;BME280;67981;51.022;-2.870;2024-01-15T05:43:32;100200.69;;;0.62;100.00
78665;BME280;67981;51.022;-2.870;2024-01-15T05:45:57;100201.91;;;0.68;100.00
78665;BME280;67981;51.022;-2.870;2024-01-15T05:48:23;100201.41;;;0.74;100.00
78665;BME280;67981;51.022;-2.870;2024-01-15T05:50:48;100190.28;;;0.72;100.00
78665;BME280;67981;51.022;-2.870;2024-01-15T05:53:14;100178.97;;;0.67;100.00
78665;BME280;67981;51.022;-2.870;2024-01-15T05:55:40;100157.38;;;0.59;100.00
78665;BME280;67981;51.022;-2.870;2024-01-15T05:58:05;100156.66;;;0.61;100.00
78665;BME280;67981;51.022;-2.870;2024-01-15T06:00:30;100152.28;;;0.59;100.00
78665;BME280;67981;51.022;-2.870;2024-01-15T06:02:58;100151.56;;;0.61;100.00
78665;BME280;67981;51.022;-2.870;2024-01-15T06:05:23;100175.19;;;0.75;100.00
78665;BME280;67981;51.022;-2.870;2024-01-15T06:07:49;100167.22;;;0.83;100.00
78665;BME280;67981;51.022;-2.870;2024-01-15T06:10:14;100153.72;;;0.84;100.00
78665;BME280;67981;51.022;-2.870;2024-01-15T06:12:40;100161.69;;;0.90;100.00
78665;BME280;67981;51.022;-2.870;2024-01-15T06:15:05;100148.13;;;0.90;100.00
78665;BME280;67981;51.022;-2.870;2024-01-15T06:17:30;100127.66;;;0.87;100.00
78665;BME280;67981;51.022;-2.870;2024-01-15T06:19:56;100119.06;;;0.85;100.00
78665;BME280;67981;51.022;-2.870;2024-01-15T06:22:22;100116.59;;;0.86;100.00
78665;BME280;67981;51.022;-2.870;2024-01-15T06:24:48;100130.69;;;0.96;100.00
78665;BME280;67981;51.022;-2.870;2024-01-15T06:27:13;100117.00;;;0.94;100.00
78665;BME280;67981;51.022;-2.870;2024-01-15T06:29:39;100107.91;;;0.97;100.00
78665;BME280;67981;51.022;-2.870;2024-01-15T06:32:04;100109.31;;;0.92;100.00
78665;BME280;67981;51.022;-2.870;2024-01-15T06:34:30;100087.94;;;0.89;100.00
78665;BME280;67981;51.022;-2.870;2024-01-15T06:36:55;100089.63;;;0.88;100.00
78665;BME280;67981;51.022;-2.870;2024-01-15T06:39:20;100082.53;;;0.83;100.00
78665;BME280;67981;51.022;-2.870;2024-01-15T06:41:46;100088.59;;;0.85;100.00
78665;BME280;67981;51.022;-2.870;2024-01-15T06:44:12;100091.38;;;0.89;100.00
78665;BME280;67981;51.022;-2.870;2024-01-15T06:46:44;100109.31;;;0.92;100.00
78665;BME280;67981;51.022;-2.870;2024-01-15T06:49:10;100100.66;;;0.89;100.00
78665;BME280;67981;51.022;-2.870;2024-01-15T06:51:35;100098.19;;;0.90;100.00
78665;BME280;67981;51.022;-2.870;2024-01-15T06:54:01;100102.25;;;0.87;100.00
78665;BME280;67981;51.022;-2.870;2024-01-15T06:56:27;100097.09;;;0.85;100.00
78665;BME280;67981;51.022;-2.870;2024-01-15T06:58:52;100100.31;;;0.83;100.00
78665;BME280;67981;51.022;-2.870;2024-01-15T07:01:17;100083.09;;;0.77;100.00
78665;BME280;67981;51.022;-2.870;2024-01-15T07:03:43;100081.19;;;0.73;100.00
78665;BME280;67981;51.022;-2.870;2024-01-15T07:06:08;100080.13;;;0.70;100.00
78665;BME280;67981;51.022;-2.870;2024-01-15T07:08:34;100078.56;;;0.72;100.00
78665;BME280;67981;51.022;-2.870;2024-01-15T07:10:59;100069.38;;;0.74;100.00
78665;BME280;67981;51.022;-2.870;2024-01-15T07:13:24;100062.19;;;0.67;100.00
78665;BME280;67981;51.022;-2.870;2024-01-15T07:15:50;100084.75;;;0.77;100.00
78665;BME280;67981;51.022;-2.870;2024-01-15T07:18:15;100069.13;;;0.69;100.00
78665;BME280;67981;51.022;-2.870;2024-01-15T07:20:41;100060.69;;;0.70;99.69
78665;BME280;67981;51.022;-2.870;2024-01-15T07:23:07;100039.97;;;0.63;99.37
78665;BME280;67981;51.022;-2.870;2024-01-15T07:25:32;100029.47;;;0.57;99.28
78665;BME280;67981;51.022;-2.870;2024-01-15T07:27:58;100163.19;;;1.80;100.00
78665;BME280;67981;51.022;-2.870;2024-01-15T07:30:23;100079.66;;;1.07;99.97
78665;BME280;67981;51.022;-2.870;2024-01-15T07:32:48;100042.56;;;0.79;99.22
78665;BME280;67981;51.022;-2.870;2024-01-15T07:35:14;100027.63;;;0.69;99.20
78665;BME280;67981;51.022;-2.870;2024-01-15T07:37:40;100015.13;;;0.57;99.03
78665;BME280;67981;51.022;-2.870;2024-01-15T07:40:06;100152.06;;;1.62;99.93
78665;BME280;67981;51.022;-2.870;2024-01-15T07:42:34;100069.94;;;0.84;99.63
78665;BME280;67981;51.022;-2.870;2024-01-15T07:44:59;100027.50;;;0.51;99.65
78665;BME280;67981;51.022;-2.870;2024-01-15T07:47:25;100005.94;;;0.29;99.50
78665;BME280;67981;51.022;-2.870;2024-01-15T07:49:51;100014.00;;;0.22;99.27
78665;BME280;67981;51.022;-2.870;2024-01-15T07:52:16;100016.78;;;0.12;98.88
78665;BME280;67981;51.022;-2.870;2024-01-15T07:54:42;100027.31;;;0.03;99.39
78665;BME280;67981;51.022;-2.870;2024-01-15T07:57:07;100038.41;;;-0.10;99.57
78665;BME280;67981;51.022;-2.870;2024-01-15T07:59:32;100040.84;;;-0.26;99.58
78665;BME280;67981;51.022;-2.870;2024-01-15T08:01:59;100064.03;;;-0.34;100.00
78665;BME280;67981;51.022;-2.870;2024-01-15T08:04:25;100077.75;;;-0.45;100.00
78665;BME280;67981;51.022;-2.870;2024-01-15T08:06:50;100087.22;;;-0.56;100.00
78665;BME280;67981;51.022;-2.870;2024-01-15T08:09:16;100119.00;;;-0.61;100.00
78665;BME280;67981;51.022;-2.870;2024-01-15T08:11:42;100154.66;;;-0.58;100.00
78665;BME280;67981;51.022;-2.870;2024-01-15T08:14:08;100174.00;;;-0.60;100.00
78665;BME280;67981;51.022;-2.870;2024-01-15T08:16:35;100200.19;;;-0.59;100.00
78665;BME280;67981;51.022;-2.870;2024-01-15T08:19:00;100207.31;;;-0.67;100.00
78665;BME280;67981;51.022;-2.870;2024-01-15T08:21:25;100212.78;;;-0.74;100.00
78665;BME280;67981;51.022;-2.870;2024-01-15T08:23:54;100225.06;;;-0.80;100.00
78665;BME280;67981;51.022;-2.870;2024-01-15T08:26:20;100227.88;;;-0.88;100.00
78665;BME280;67981;51.022;-2.870;2024-01-15T08:28:46;100246.69;;;-0.85;100.00
78665;BME280;67981;51.022;-2.870;2024-01-15T08:31:12;100272.50;;;-0.77;100.00
78665;BME280;67981;51.022;-2.870;2024-01-15T08:33:38;100288.75;;;-0.74;100.00
78665;BME280;67981;51.022;-2.870;2024-01-15T08:36:03;100288.28;;;-0.81;100.00
78665;BME280;67981;51.022;-2.870;2024-01-15T08:38:29;100299.50;;;-0.78;100.00
78665;BME280;67981;51.022;-2.870;2024-01-15T08:40:54;100306.59;;;-0.72;100.00
78665;BME280;67981;51.022;-2.870;2024-01-15T08:43:21;100340.41;;;-0.59;100.00
78665;BME280;67981;51.022;-2.870;2024-01-15T08:45:47;100344.13;;;-0.54;100.00
78665;BME280;67981;51.022;-2.870;2024-01-15T08:48:13;100341.31;;;-0.45;100.00
78665;BME280;67981;51.022;-2.870;2024-01-15T08:50:38;100362.81;;;-0.26;100.00
78665;BME280;67981;51.022;-2.870;2024-01-15T08:53:04;100360.16;;;-0.14;100.00
78665;BME280;67981;51.022;-2.870;2024-01-15T08:55:29;100348.28;;;-0.15;100.00
78665;BME280;67981;51.022;-2.870;2024-01-15T08:57:55;100340.78;;;-0.14;100.00
78665;BME280;67981;51.022;-2.870;2024-01-15T09:00:20;100328.88;;;-0.15;100.00
78665;BME280;67981;51.022;-2.870;2024-01-15T09:02:46;100342.22;;;-0.04;100.00
78665;BME280;67981;51.022;-2.870;2024-01-15T09:05:11;100346.84;;;0.16;100.00
78665;BME280;67981;51.022;-2.870;2024-01-15T09:07:37;100339.84;;;0.40;100.00
78665;BME280;67981;51.022;-2.870;2024-01-15T09:10:02;100310.19;;;0.39;100.00
78665;BME280;67981;51.022;-2.870;2024-01-15T09:12:28;100298.63;;;0.58;100.00
78665;BME280;67981;51.022;-2.870;2024-01-15T09:14:54;100280.97;;;0.74;100.00
78665;BME280;67981;51.022;-2.870;2024-01-15T09:17:21;100248.91;;;0.91;99.84
78665;BME280;67981;51.022;-2.870;2024-01-15T09:19:48;100214.06;;;1.03;99.16
78665;BME280;67981;51.022;-2.870;2024-01-15T09:22:14;100175.91;;;1.17;98.04
78665;BME280;67981;51.022;-2.870;2024-01-15T09:24:42;100119.13;;;1.17;97.39
78665;BME280;67981;51.022;-2.870;2024-01-15T09:27:08;100079.75;;;1.25;96.44
78665;BME280;67981;51.022;-2.870;2024-01-15T09:29:33;100044.47;;;1.31;95.61
78665;BME280;67981;51.022;-2.870;2024-01-15T09:31:58;99998.75;;;1.31;95.10
78665;BME280;67981;51.022;-2.870;2024-01-15T09:34:24;99961.88;;;1.39;94.52
78665;BME280;67981;51.022;-2.870;2024-01-15T09:36:49;99920.34;;;1.38;93.53
78665;BME280;67981;51.022;-2.870;2024-01-15T09:39:15;99879.16;;;1.45;92.88
78665;BME280;67981;51.022;-2.870;2024-01-15T09:41:41;99837.72;;;1.47;92.50
78665;BME280;67981;51.022;-2.870;2024-01-15T09:44:07;99818.75;;;1.58;91.74
78665;BME280;67981;51.022;-2.870;2024-01-15T09:46:34;99784.38;;;1.66;91.24
78665;BME280;67981;51.022;-2.870;2024-01-15T09:49:00;99752.19;;;1.66;90.27
78665;BME280;67981;51.022;-2.870;2024-01-15T09:51:28;99713.25;;;1.67;90.22
78665;BME280;67981;51.022;-2.870;2024-01-15T09:53:57;99691.53;;;1.74;89.61
78665;BME280;67981;51.022;-2.870;2024-01-15T09:56:23;99668.75;;;1.77;89.58
78665;BME280;67981;51.022;-2.870;2024-01-15T09:58:50;99650.34;;;1.82;88.90
78665;BME280;67981;51.022;-2.870;2024-01-15T10:01:17;99638.63;;;1.86;89.06
78665;BME280;67981;51.022;-2.870;2024-01-15T10:03:42;99618.91;;;1.80;89.05
78665;BME280;67981;51.022;-2.870;2024-01-15T10:06:08;99632.59;;;1.84;88.98
78665;BME280;67981;51.022;-2.870;2024-01-15T10:08:36;99644.78;;;1.91;89.46
78665;BME280;67981;51.022;-2.870;2024-01-15T10:11:02;99634.56;;;1.89;89.03
78665;BME280;67981;51.022;-2.870;2024-01-15T10:13:30;99621.84;;;1.89;89.08
78665;BME280;67981;51.022;-2.870;2024-01-15T10:15:55;99625.19;;;1.88;89.28
78665;BME280;67981;51.022;-2.870;2024-01-15T10:18:21;99631.13;;;1.89;89.08
78665;BME280;67981;51.022;-2.870;2024-01-15T10:20:47;99641.53;;;1.93;89.30
78665;BME280;67981;51.022;-2.870;2024-01-15T10:23:14;99663.72;;;1.97;89.71
78665;BME280;67981;51.022;-2.870;2024-01-15T10:25:41;99681.72;;;2.02;89.99
78665;BME280;67981;51.022;-2.870;2024-01-15T10:28:07;99714.41;;;2.12;89.68
78665;BME280;67981;51.022;-2.870;2024-01-15T10:30:33;99725.84;;;2.21;90.29
78665;BME280;67981;51.022;-2.870;2024-01-15T10:33:03;99721.75;;;2.25;90.13
78665;BME280;67981;51.022;-2.870;2024-01-15T10:35:33;99733.09;;;2.31;89.74
78665;BME280;67981;51.022;-2.870;2024-01-15T10:38:00;99737.63;;;2.38;89.81
78665;BME280;67981;51.022;-2.870;2024-01-15T10:40:26;99740.63;;;2.49;89.81
78665;BME280;67981;51.022;-2.870;2024-01-15T10:42:52;99714.22;;;2.47;89.66
78665;BME280;67981;51.022;-2.870;2024-01-15T10:45:17;99714.28;;;2.48;89.73
78665;BME280;67981;51.022;-2.870;2024-01-15T10:47:43;99731.63;;;2.57;89.43
78665;BME280;67981;51.022;-2.870;2024-01-15T10:50:10;99738.66;;;2.62;89.79
78665;BME280;67981;51.022;-2.870;2024-01-15T10:52:37;99736.31;;;2.67;89.60
78665;BME280;67981;51.022;-2.870;2024-01-15T10:55:03;99738.03;;;2.68;89.70
78665;BME280;67981;51.022;-2.870;2024-01-15T10:57:30;99739.41;;;2.80;89.18
78665;BME280;67981;51.022;-2.870;2024-01-15T10:59:55;99720.34;;;2.92;89.04
78665;BME280;67981;51.022;-2.870;2024-01-15T11:02:21;99673.03;;;2.98;88.00
78665;BME280;67981;51.022;-2.870;2024-01-15T11:04:47;99627.53;;;3.07;87.78
78665;BME280;67981;51.022;-2.870;2024-01-15T11:07:13;99571.75;;;3.15;87.15
78665;BME280;67981;51.022;-2.870;2024-01-15T11:09:39;99509.94;;;3.20;85.62
78665;BME280;67981;51.022;-2.870;2024-01-15T11:12:13;99430.13;;;3.23;85.21
78665;BME280;67981;51.022;-2.870;2024-01-15T11:14:48;99322.06;;;3.18;84.00
78665;BME280;67981;51.022;-2.870;2024-01-15T11:17:15;99256.78;;;3.21;83.17
78665;BME280;67981;51.022;-2.870;2024-01-15T11:25:03;99120.38;;;3.35;82.30
78665;BME280;67981;51.022;-2.870;2024-01-15T11:27:49;99080.31;;;3.30;82.01
78665;BME280;67981;51.022;-2.870;2024-01-15T11:30:18;99071.75;;;3.28;81.84
78665;BME280;67981;51.022;-2.870;2024-01-15T11:32:45;99004.47;;;3.23;80.99
78665;BME280;67981;51.022;-2.870;2024-01-15T11:35:12;98941.53;;;3.19;80.72
78665;BME280;67981;51.022;-2.870;2024-01-15T11:40:23;98846.38;;;3.20;79.91
78665;BME280;67981;51.022;-2.870;2024-01-15T11:42:49;98820.94;;;3.21;79.44
78665;BME280;67981;51.022;-2.870;2024-01-15T11:45:18;98794.59;;;3.21;78.98
78665;BME280;67981;51.022;-2.870;2024-01-15T11:48:12;98774.38;;;3.27;79.07
78665;BME280;67981;51.022;-2.870;2024-01-15T11:50:47;98771.88;;;3.30;78.80
78665;BME280;67981;51.022;-2.870;2024-01-15T11:53:45;98766.63;;;3.22;79.09
78665;BME280;67981;51.022;-2.870;2024-01-15T11:56:16;98758.25;;;3.29;78.69
78665;BME280;67981;51.022;-2.870;2024-01-15T11:58:42;98751.44;;;3.27;78.59
78665;BME280;67981;51.022;-2.870;2024-01-15T12:01:08;98759.22;;;3.33;78.75
78665;BME280;67981;51.022;-2.870;2024-01-15T12:03:34;98755.69;;;3.28;78.73
78665;BME280;67981;51.022;-2.870;2024-01-15T12:06:00;98718.91;;;3.17;78.40
78665;BME280;67981;51.022;-2.870;2024-01-15T12:08:26;98759.25;;;3.34;78.52
78665;BME280;67981;51.022;-2.870;2024-01-15T12:10:53;98753.41;;;3.38;78.35
78665;BME280;67981;51.022;-2.870;2024-01-15T12:13:19;98769.88;;;3.52;78.23
78665;BME280;67981;51.022;-2.870;2024-01-15T12:15:46;98728.09;;;3.47;77.59
78665;BME280;67981;51.022;-2.870;2024-01-15T12:18:13;98681.25;;;3.42;78.02
78665;BME280;67981;51.022;-2.870;2024-01-15T12:20:40;98637.91;;;3.42;77.25
78665;BME280;67981;51.022;-2.870;2024-01-15T12:23:07;98638.06;;;3.50;77.10
78665;BME280;67981;51.022;-2.870;2024-01-15T12:25:33;98629.69;;;3.55;77.10
78665;BME280;67981;51.022;-2.870;2024-01-15T12:28:00;98615.09;;;3.48;76.75
78665;BME280;67981;51.022;-2.870;2024-01-15T12:30:27;98592.94;;;3.46;76.63
78665;BME280;67981;51.022;-2.870;2024-01-15T12:32:52;98591.34;;;3.51;76.62
78665;BME280;67981;51.022;-2.870;2024-01-15T12:35:18;98558.84;;;3.41;76.40
78665;BME280;67981;51.022;-2.870;2024-01-15T12:37:44;98579.47;;;3.53;76.88
78665;BME280;67981;51.022;-2.870;2024-01-15T12:40:12;98577.03;;;3.57;76.68
78665;BME280;67981;51.022;-2.870;2024-01-15T12:42:41;98544.81;;;3.61;76.47
78665;BME280;67981;51.022;-2.870;2024-01-15T12:45:09;98509.91;;;3.58;76.13
78665;BME280;67981;51.022;-2.870;2024-01-15T12:47:36;98503.91;;;3.56;75.75
78665;BME280;67981;51.022;-2.870;2024-01-15T12:50:01;98515.13;;;3.66;75.68
78665;BME280;67981;51.022;-2.870;2024-01-15T12:52:29;98423.13;;;3.54;75.00
78665;BME280;67981;51.022;-2.870;2024-01-15T12:54:55;98327.91;;;3.52;74.69